Time;durP1;ratioP1;P1;durP2;ratioP2;P2;SDS_P1;SDS_P2;PMS_P1;PMS_P2;Temp;Humidity;BMP_temperature;BMP_pressure;BME280_temperature;BME280_humidity;BME280_pressure;Samples;Min_cycle;Max_cycle;Signal;HPM_P1;HPM_P2
2022/06/14 00:01:21;;;;;;;6.90;2.65;;;22.80;45.80;;;;;;7369802;19;20081;-76
2022/06/14 00:10:42;;;;;;;7.68;2.65;;;22.70;45.90;;;;;;7370270;19;20006;-75
2022/06/14 00:17:27;;;;;;;5.38;2.63;;;22.60;46.10;;;;;;7369994;19;20010;-75
2022/06/14 00:20:44;;;;;;;6.82;2.45;;;22.40;46.40;;;;;;7346997;19;20018;-75
2022/06/14 00:23:59;;;;;;;6.38;2.72;;;22.40;46.70;;;;;;7361054;19;20018;-75
2022/06/14 00:27:13;;;;;;;6.95;2.72;;;22.30;46.80;;;;;;7366109;19;20364;-76
2022/06/14 00:43:04;;;;;;;5.97;3.10;;;22.30;47.20;;;;;;7368108;19;20221;-75
2022/06/14 00:46:36;;;;;;;7.93;3.20;;;22.30;47.40;;;;;;7367480;19;20062;-75
2022/06/14 00:59:47;;;;;;;;;;;;;;;;;;;;;
2022/06/14 01:06:27;;;;;;;6.75;2.72;;;22.00;47.50;;;;;;7365765;19;20022;-75
2022/06/14 01:16:11;;;;;;;6.55;2.90;;;21.90;47.70;;;;;;7366449;19;20050;-75
2022/06/14 01:19:37;;;;;;;8.35;2.90;;;22.00;47.90;;;;;;7365655;19;20018;-76
2022/06/14 01:29:41;;;;;;;7.32;2.55;;;22.00;47.80;;;;;;7365123;19;20022;-77
2022/06/14 01:46:33;;;;;;;5.55;2.08;;;22.20;46.80;;;;;;7364845;19;20086;-75
2022/06/14 01:56:58;;;;;;;14.00;6.30;;;22.20;46.40;;;;;;7347338;19;20030;-76
2022/06/14 02:00:16;;;;;;;;;;;;;;;;;;;;;
2022/06/14 02:06:58;;;;;;;3.63;1.70;;;22.20;46.00;;;;;;7367151;19;20089;-75
2022/06/14 02:13:41;;;;;;;2.95;1.80;;;22.20;45.80;;;;;;7368357;19;20018;-76
2022/06/14 02:27:01;;;;;;;3.95;2.10;;;22.20;46.80;;;;;;7212216;19;2004476;-76
2022/06/14 02:39:59;;;;;;;5.40;2.13;;;21.80;46.70;;;;;;7365933;19;20014;-76
2022/06/14 02:53:34;;;;;;;11.85;2.78;;;21.30;47.80;;;;;;7374286;19;20022;-75
2022/06/14 02:56:28;;;;;;;7.32;2.47;;;21.30;47.90;;;;;;7273952;19;2004499;-74
2022/06/14 03:03:14;;;;;;;4.45;1.77;;;21.40;47.90;;;;;;7272315;19;2004420;-75
2022/06/14 03:06:28;;;;;;;4.05;1.90;;;21.40;47.80;;;;;;7367654;19;20030;-75
2022/06/14 03:22:49;;;;;;;;;;;21.20;47.80;;;;;;7364660;19;20440;-75
2022/06/14 03:53:44;;;;;;;4.25;2.10;;;20.70;49.40;;;;;;7272545;19;2004944;-75
2022/06/14 03:56:55;;;;;;;8.43;2.30;;;20.70;49.40;;;;;;7373579;19;20082;-75
2022/06/14 04:00:02;;;;;;;4.13;2.05;;;20.70;49.50;;;;;;7367545;19;20008;-75
2022/06/14 04:03:09;;;;;;;6.05;2.15;;;20.70;49.40;;;;;;7369821;19;20018;-76
2022/06/14 04:06:09;;;;;;;4.25;2.10;;;20.70;49.30;;;;;;7371557;19;20015;-75
2022/06/14 04:09:14;;;;;;;6.43;2.55;;;20.70;49.30;;;;;;7374406;19;20022;-75
2022/06/14 04:16:06;;;;;;;7.75;2.50;;;20.70;49.50;;;;;;7393634;19;20017;-75
2022/06/14 04:22:38;;;;;;;6.88;2.60;;;20.60;49.90;;;;;;7395525;19;20014;-76
2022/06/14 04:25:49;;;;;;;5.72;2.58;;;20.60;50.00;;;;;;7371214;19;20017;-75
2022/06/14 04:28:49;;;;;;;5.10;2.67;;;20.60;50.20;;;;;;7372810;19;20095;-75
2022/06/14 04:38:26;;;;;;;5.13;2.70;;;20.60;50.40;;;;;;7394323;19;20025;-75
2022/06/14 04:52:33;;;;;;;6.68;2.55;;;20.60;50.80;;;;;;7387764;19;20974;-75
2022/06/14 05:06:37;;;;;;;44.75;27.10;;;20.80;51.00;;;;;;7368683;19;20015;-74
2022/06/14 05:13:08;;;;;;;9.82;4.85;;;20.80;51.30;;;;;;7352740;19;20014;-75
2022/06/14 05:16:29;;;;;;;5.68;2.95;;;20.80;51.40;;;;;;7366967;19;20015;-76
2022/06/14 05:30:12;;;;;;;;;;;;;;;;;;;;;
2022/06/14 05:37:07;;;;;;;10.57;3.40;;;21.00;52.30;;;;;;7355308;19;20007;-74
2022/06/14 05:40:43;;;;;;;5.88;2.58;;;21.00;52.30;;;;;;7363080;19;20160;-72
2022/06/14 05:47:14;;;;;;;86.03;59.25;;;21.20;52.80;;;;;;7366063;19;20090;-75
2022/06/14 05:57:14;;;;;;;6.57;3.22;;;21.40;49.90;;;;;;7240346;19;2004694;-75
2022/06/14 06:03:56;;;;;;;10.90;5.75;;;21.50;51.10;;;;;;7367281;19;20014;-76
2022/06/14 06:18:44;;;;;;;8.00;2.58;;;21.90;48.70;;;;;;7350050;19;20027;-77
2022/06/14 06:32:59;;;;;;;12.70;2.33;;;22.20;48.40;;;;;;7402621;19;20042;-76
2022/06/14 07:18:29;;;;;;;7.80;3.03;;;22.70;47.10;;;;;;7268151;19;2004521;-75
2022/06/14 08:04:43;;;;;;;6.13;1.90;;;23.30;45.60;;;;;;7370003;19;20409;-76
2022/06/14 08:30:52;;;;;;;5.05;1.92;;;23.70;44.60;;;;;;7271089;19;20034;-76
2022/06/14 08:34:13;;;;;;;11.30;2.40;;;23.70;43.90;;;;;;7397780;19;20010;-76
2022/06/14 09:36:26;;;;;;;;;;;;;;;;;;;;;
2022/06/14 10:23:46;;;;;;;7.88;2.88;;;24.80;40.20;;;;;;7395939;19;20019;-77
2022/06/14 10:44:39;;;;;;;;;;;;;;;;;;;;;
2022/06/14 12:24:17;;;;;;;10.35;2.78;;;26.90;36.40;;;;;;7371137;19;20010;-76
2022/06/14 12:26:56;;;;;;;10.98;2.40;;;26.90;37.00;;;;;;7366098;19;20034;-77
2022/06/14 12:29:29;;;;;;;5.85;2.42;;;27.00;36.90;;;;;;7369986;19;20413;-77
2022/06/14 12:32:11;;;;;;;7.25;2.65;;;27.00;37.00;;;;;;7389664;19;20014;-77
2022/06/14 12:34:48;;;;;;;6.15;2.55;;;27.10;36.50;;;;;;7370301;19;20014;-77
2022/06/14 12:37:36;;;;;;;6.53;2.08;;;27.10;37.00;;;;;;7367387;19;20082;-77
2022/06/14 12:40:12;;;;;;;7.22;2.22;;;27.10;37.00;;;;;;7365868;19;20039;-77
2022/06/14 12:42:53;;;;;;;6.53;2.40;;;27.10;36.60;;;;;;7367693;19;20014;-77
2022/06/14 12:45:25;;;;;;;6.00;2.53;;;27.20;36.10;;;;;;7367208;19;20649;-77
2022/06/14 12:48:05;;;;;;;4.20;2.40;;;27.20;36.10;;;;;;7366977;19;20046;-77
2022/06/14 12:50:38;;;;;;;9.63;2.80;;;27.30;35.70;;;;;;7366693;19;20007;-78
2022/06/14 12:53:17;;;;;;;4.75;2.00;;;27.30;35.90;;;;;;7365864;19;20113;-78
2022/06/14 12:55:50;;;;;;;6.15;2.63;;;27.40;35.90;;;;;;7391120;19;20483;-77
2022/06/14 12:58:37;;;;;;;7.82;2.72;;;27.40;35.40;;;;;;7369072;19;20494;-78
2022/06/14 13:01:17;;;;;;;4.90;2.00;;;27.40;35.30;;;;;;7368399;19;20023;-77
2022/06/14 13:03:53;;;;;;;5.93;2.25;;;27.40;35.00;;;;;;7365635;19;20011;-77
2022/06/14 13:06:50;;;;;;;6.25;2.60;;;27.50;34.30;;;;;;7366259;19;20049;-77
2022/06/14 13:09:30;;;;;;;5.63;2.47;;;27.60;34.70;;;;;;7368531;19;20014;-78
2022/06/14 13:12:11;;;;;;;4.93;2.20;;;27.70;35.80;;;;;;7367395;19;20340;-77
2022/06/14 13:14:49;;;;;;;7.32;2.65;;;27.80;35.70;;;;;;7369137;19;20512;-78
2022/06/14 13:17:32;;;;;;;4.78;2.15;;;27.90;35.80;;;;;;7368593;19;20032;-78
2022/06/14 13:20:07;;;;;;;6.43;2.38;;;28.00;35.60;;;;;;7389771;19;20018;-77
2022/06/14 13:22:55;;;;;;;8.82;3.05;;;28.20;35.50;;;;;;7369074;19;20015;-77
2022/06/14 13:25:47;;;;;;;8.68;2.85;;;28.30;35.40;;;;;;7367385;19;20007;-78
2022/06/14 13:28:29;;;;;;;7.45;2.75;;;28.40;36.10;;;;;;7368190;19;20049;-77
2022/06/14 13:31:06;;;;;;;;;;;28.40;35.90;;;;;;7368304;19;20022;-78
2022/06/14 13:33:49;;;;;;;6.35;3.22;;;28.40;35.20;;;;;;7364468;19;19989;-79
2022/06/14 13:36:24;;;;;;;5.63;2.38;;;28.30;34.60;;;;;;7367864;19;20018;-79
2022/06/14 13:38:56;;;;;;;13.93;2.60;;;28.40;36.10;;;;;;7366033;19;20029;-78
2022/06/14 13:41:34;;;;;;;5.05;2.40;;;28.40;35.80;;;;;;7367030;19;20022;-79
2022/06/14 13:44:08;;;;;;;8.05;2.67;;;28.50;34.40;;;;;;7380753;19;20446;-78
2022/06/14 13:46:44;;;;;;;6.70;3.55;;;28.60;34.30;;;;;;7390261;19;20025;-78
2022/06/14 13:49:19;;;;;;;9.93;3.50;;;28.70;34.70;;;;;;7366617;19;20063;-79
2022/06/14 13:51:54;;;;;;;7.63;2.70;;;28.70;35.20;;;;;;7366578;19;20055;-76
2022/06/14 13:54:34;;;;;;;6.50;2.63;;;28.60;35.10;;;;;;7368404;19;20094;-78
2022/06/14 13:57:17;;;;;;;87.40;60.88;;;28.50;35.40;;;;;;7364536;19;20021;-77
2022/06/14 13:59:49;;;;;;;7.72;2.80;;;28.50;36.40;;;;;;7364571;19;20021;-77
2022/06/14 14:02:27;;;;;;;12.43;2.83;;;28.60;36.10;;;;;;7365495;19;20086;-77
2022/06/14 14:05:04;;;;;;;6.82;2.75;;;28.60;35.20;;;;;;7386666;19;20018;-77
2022/06/14 14:07:39;;;;;;;9.55;2.72;;;28.70;34.70;;;;;;7364035;19;20089;-78
2022/06/14 14:10:35;;;;;;;8.20;2.67;;;28.70;34.30;;;;;;7364225;19;20027;-77
2022/06/14 14:13:12;;;;;;;5.70;2.40;;;28.70;34.50;;;;;;7365599;19;20388;-77
2022/06/14 14:15:49;;;;;;;5.80;2.53;;;28.80;34.90;;;;;;7366843;19;20136;-78
2022/06/14 14:18:31;;;;;;;4.05;2.25;;;28.70;33.80;;;;;;7367084;19;20017;-77
2022/06/14 14:21:05;;;;;;;8.93;2.38;;;28.80;35.00;;;;;;7366378;19;20044;-77
2022/06/14 14:24:10;;;;;;;7.22;2.70;;;28.80;35.40;;;;;;7364758;19;20022;-77
2022/06/14 14:26:45;;;;;;;10.30;2.42;;;28.90;34.70;;;;;;7364776;19;20474;-77
2022/06/14 14:29:19;;;;;;;6.45;2.45;;;29.00;34.90;;;;;;7364748;19;20553;-77
2022/06/14 14:31:55;;;;;;;10.13;2.80;;;29.00;34.10;;;;;;7383583;19;20094;-77
2022/06/14 14:34:30;;;;;;;7.93;2.60;;;29.00;33.70;;;;;;7366917;19;20015;-77
2022/06/14 14:37:05;;;;;;;7.47;2.35;;;29.10;34.80;;;;;;7364695;19;20023;-77
2022/06/14 14:39:55;;;;;;;8.13;2.80;;;29.10;34.70;;;;;;7364065;19;20354;-77
2022/06/14 14:42:43;;;;;;;4.68;2.50;;;29.20;34.70;;;;;;7362499;19;20014;-77
2022/06/14 14:45:16;;;;;;;7.10;2.42;;;29.20;34.60;;;;;;7364441;19;20328;-77
2022/06/14 14:47:50;;;;;;;5.60;2.00;;;29.20;34.10;;;;;;7371986;19;20018;-77
2022/06/14 14:50:33;;;;;;;5.93;2.88;;;29.20;34.30;;;;;;7366900;19;20461;-77
2022/06/14 14:53:08;;;;;;;10.48;2.80;;;29.20;34.60;;;;;;7391344;19;20364;-77
2022/06/14 14:55:40;;;;;;;9.48;2.30;;;29.30;33.70;;;;;;7372738;19;20046;-77
2022/06/14 14:58:16;;;;;;;4.70;2.35;;;29.30;34.60;;;;;;7374321;19;20084;-77
2022/06/14 15:06:29;;;;;;;4.25;2.10;;;29.50;34.10;;;;;;7378109;19;20015;-76
2022/06/14 15:09:03;;;;;;;9.27;2.72;;;29.50;33.50;;;;;;7376951;19;20019;-77
2022/06/14 15:11:32;;;;;;;9.13;2.30;;;29.60;33.80;;;;;;7374870;19;20729;-77
2022/06/14 15:14:02;;;;;;;6.25;2.10;;;29.70;33.60;;;;;;7401957;19;20255;-77
2022/06/14 15:16:33;;;;;;;5.85;2.50;;;29.80;32.80;;;;;;7377164;19;20036;-77
2022/06/14 15:21:51;;;;;;;5.18;2.50;;;30.00;33.60;;;;;;7373715;19;20014;-76
2022/06/14 15:24:25;;;;;;;6.25;2.58;;;30.00;32.50;;;;;;7372615;19;20485;-77
2022/06/14 15:26:58;;;;;;;9.52;2.20;;;30.10;32.70;;;;;;7371311;19;20035;-77
2022/06/14 15:29:34;;;;;;;4.32;2.22;;;30.40;32.20;;;;;;7369929;19;20015;-77
2022/06/14 15:32:17;;;;;;;4.82;2.10;;;30.90;31.50;;;;;;7382367;19;20113;-77
2022/06/14 15:34:48;;;;;;;4.50;2.22;;;31.50;30.60;;;;;;7395782;19;20043;-76
2022/06/14 15:37:26;;;;;;;6.95;2.33;;;32.10;29.90;;;;;;7371395;19;20010;-77
2022/06/14 15:39:58;;;;;;;6.07;2.30;;;33.00;29.70;;;;;;7365126;19;20018;-77
2022/06/14 15:42:35;;;;;;;5.32;2.20;;;33.70;29.00;;;;;;7369600;19;20022;-77
2022/06/14 15:45:17;;;;;;;6.15;2.40;;;34.30;28.50;;;;;;7370938;19;20015;-77
2022/06/14 15:47:46;;;;;;;4.47;2.50;;;34.80;28.20;;;;;;7372463;19;20010;-77
2022/06/14 15:50:29;;;;;;;6.72;2.20;;;35.30;27.90;;;;;;7369984;19;20445;-77
2022/06/14 15:53:04;;;;;;;6.40;1.95;;;35.80;27.30;;;;;;7392119;19;20022;-76
2022/06/14 15:55:37;;;;;;;4.95;1.92;;;36.20;26.80;;;;;;7372009;19;20049;-77
2022/06/14 15:58:25;;;;;;;5.47;2.03;;;36.70;26.30;;;;;;7370475;19;20806;-77
2022/06/14 16:00:57;;;;;;;12.02;2.22;;;37.10;26.20;;;;;;7371088;19;20035;-77
2022/06/14 16:03:34;;;;;;;8.05;2.10;;;37.50;26.10;;;;;;7369577;19;20015;-77
2022/06/14 16:06:07;;;;;;;3.90;1.85;;;37.80;26.10;;;;;;7369090;19;20010;-77
2022/06/14 16:08:42;;;;;;;6.35;1.90;;;38.10;25.60;;;;;;7371736;19;20477;-77
2022/06/14 16:11:14;;;;;;;4.60;1.60;;;38.40;25.20;;;;;;7373228;19;20018;-77
2022/06/14 16:13:48;;;;;;;5.50;2.22;;;38.60;24.70;;;;;;7392761;19;20094;-76
2022/06/14 16:16:31;;;;;;;5.35;2.08;;;38.90;24.60;;;;;;7371701;19;20018;-76
2022/06/14 16:19:01;;;;;;;5.05;2.10;;;39.10;24.40;;;;;;7370646;19;20138;-76
2022/06/14 16:21:37;;;;;;;9.68;2.00;;;39.30;24.90;;;;;;7370805;19;20006;-77
2022/06/14 16:24:14;;;;;;;3.25;1.67;;;39.30;24.40;;;;;;7370101;19;20476;-77
2022/06/14 16:26:54;;;;;;;4.53;1.70;;;39.50;24.50;;;;;;7371941;19;20023;-77
2022/06/14 16:29:37;;;;;;;3.75;1.92;;;39.80;24.10;;;;;;7372632;19;20008;-77
2022/06/14 16:32:11;;;;;;;4.57;1.95;;;39.90;24.00;;;;;;7371380;19;20373;-77
2022/06/14 16:34:49;;;;;;;6.43;2.45;;;40.10;23.90;;;;;;7392976;19;20035;-78
2022/06/14 16:37:26;;;;;;;6.68;2.35;;;40.40;24.00;;;;;;7372534;19;20018;-76
2022/06/14 16:40:07;;;;;;;5.53;1.88;;;40.60;23.70;;;;;;7367993;19;20019;-77
2022/06/14 16:42:43;;;;;;;4.50;2.00;;;40.70;22.80;;;;;;7372892;19;20014;-77
2022/06/14 16:45:22;;;;;;;4.90;1.90;;;40.80;23.30;;;;;;7366610;19;20451;-77
2022/06/14 16:48:04;;;;;;;36.83;32.05;;;41.00;23.30;;;;;;7370919;19;20018;-78
2022/06/14 16:50:39;;;;;;;56.83;50.55;;;41.20;23.20;;;;;;7373090;19;20019;-84
2022/06/14 16:53:17;;;;;;;7.38;4.70;;;41.50;23.40;;;;;;7369492;19;20328;-82
2022/06/14 16:55:55;;;;;;;3.47;2.22;;;41.70;23.40;;;;;;7392138;19;20022;-81
2022/06/14 16:58:38;;;;;;;5.32;3.53;;;42.00;23.10;;;;;;7370858;19;20433;-80
2022/06/14 17:01:14;;;;;;;11.85;3.28;;;42.20;23.20;;;;;;7368407;19;20023;-76
2022/06/14 17:03:52;;;;;;;3.38;2.00;;;42.60;23.30;;;;;;7369900;19;20037;-78
2022/06/14 17:06:38;;;;;;;4.22;2.00;;;42.80;22.50;;;;;;7371607;19;20074;-76
2022/06/14 17:09:20;;;;;;;2.90;2.00;;;43.00;22.10;;;;;;7367374;19;20022;-78
2022/06/14 17:12:00;;;;;;;6.43;1.98;;;43.30;21.80;;;;;;7369705;19;20468;-77
2022/06/14 17:14:36;;;;;;;4.72;2.03;;;43.40;21.80;;;;;;7368305;19;20548;-77
2022/06/14 17:17:10;;;;;;;3.72;2.08;;;43.40;21.60;;;;;;7366756;19;20125;-78
2022/06/14 17:19:50;;;;;;;4.18;2.38;;;43.60;21.70;;;;;;7389100;19;20182;-75
2022/06/14 17:22:26;;;;;;;4.97;1.87;;;43.90;21.60;;;;;;7366739;19;20064;-78
2022/06/14 17:25:04;;;;;;;5.80;1.50;;;44.00;21.80;;;;;;7367610;19;20023;-76
2022/06/14 17:30:28;;;;;;;4.10;1.60;;;44.20;21.00;;;;;;7369873;19;20002;-77
2022/06/14 17:33:02;;;;;;;7.22;1.90;;;44.30;21.10;;;;;;7367095;19;20098;-78
2022/06/14 17:35:38;;;;;;;12.90;2.03;;;44.20;21.20;;;;;;7370156;19;20032;-78
2022/06/14 17:38:16;;;;;;;5.10;2.28;;;44.20;21.40;;;;;;7367064;19;20046;-77
2022/06/14 17:40:48;;;;;;;5.80;2.00;;;44.30;21.30;;;;;;7389839;19;20027;-77
2022/06/14 17:43:37;;;;;;;6.68;1.80;;;44.30;21.20;;;;;;7368280;19;20018;-83
2022/06/14 17:46:10;;;;;;;54.03;48.45;;;44.20;20.90;;;;;;7365948;19;20025;-77
2022/06/14 17:48:46;;;;;;;7.80;5.75;;;44.30;20.70;;;;;;7369327;19;20100;-77
2022/06/14 17:51:25;;;;;;;12.65;2.42;;;44.40;20.80;;;;;;7369527;19;20010;-77
2022/06/14 17:54:02;;;;;;;4.07;3.17;;;44.40;20.60;;;;;;7368225;19;20047;-77
2022/06/14 17:56:41;;;;;;;6.20;2.40;;;44.30;21.10;;;;;;7367434;19;20014;-77
2022/06/14 17:59:37;;;;;;;10.55;2.17;;;44.40;20.90;;;;;;7364497;19;20094;-78
2022/06/14 18:02:20;;;;;;;4.32;2.15;;;44.40;20.60;;;;;;7366877;19;20460;-78
2022/06/14 18:04:57;;;;;;;3.83;2.20;;;44.20;21.10;;;;;;7387581;19;20052;-85
2022/06/14 18:07:47;;;;;;;5.13;1.70;;;43.90;21.30;;;;;;7369051;19;20036;-79
2022/06/14 18:10:37;;;;;;;4.57;2.03;;;43.80;22.20;;;;;;7368240;19;20755;-80
2022/06/14 18:13:09;;;;;;;4.32;2.05;;;43.70;21.90;;;;;;7365897;19;20029;-83
2022/06/14 18:15:45;;;;;;;6.97;2.40;;;43.60;22.30;;;;;;7364643;19;20058;-78
2022/06/14 18:18:28;;;;;;;3.63;1.90;;;43.50;22.20;;;;;;7353322;19;20010;-77
2022/06/14 18:21:00;;;;;;;4.30;1.88;;;43.40;22.70;;;;;;7364372;19;20398;-77
2022/06/14 18:23:31;;;;;;;3.10;1.90;;;43.30;22.70;;;;;;7366114;19;20006;-78
2022/06/14 18:26:29;;;;;;;3.25;2.10;;;43.20;23.00;;;;;;7386192;19;20018;-79
2022/06/14 18:29:12;;;;;;;6.15;2.00;;;43.10;23.20;;;;;;7264198;19;2004434;-78
2022/06/14 18:31:48;;;;;;;7.38;1.92;;;43.10;23.10;;;;;;7374760;19;20022;-77
2022/06/14 18:34:40;;;;;;;6.60;2.40;;;42.90;22.40;;;;;;7364426;19;20082;-78
2022/06/14 18:37:33;;;;;;;5.57;2.22;;;42.70;22.80;;;;;;7363283;19;20936;-79
2022/06/14 18:40:06;;;;;;;2.50;1.83;;;42.50;23.50;;;;;;7338576;19;20026;-78
2022/06/14 18:43:10;;;;;;;7.20;2.00;;;42.30;23.40;;;;;;7368892;19;20015;-77
2022/06/14 18:45:49;;;;;;;4.28;2.03;;;41.90;23.80;;;;;;7364554;19;20026;-76
2022/06/14 18:48:46;;;;;;;7.15;2.30;;;41.40;24.40;;;;;;7388159;19;20029;-77
2022/06/14 18:51:28;;;;;;;6.00;2.30;;;40.90;25.00;;;;;;7366125;19;20039;-77
2022/06/14 18:54:06;;;;;;;7.28;2.20;;;40.50;24.80;;;;;;7367891;19;20014;-77
2022/06/14 18:56:42;;;;;;;3.95;2.17;;;40.20;25.40;;;;;;7365628;19;20034;-77
2022/06/14 18:59:14;;;;;;;7.38;2.00;;;39.80;25.70;;;;;;7369403;19;20031;-77
2022/06/14 19:01:45;;;;;;;5.05;1.88;;;39.30;26.30;;;;;;7368553;19;20014;-77
2022/06/14 19:04:38;;;;;;;4.10;1.83;;;39.00;26.10;;;;;;7368641;19;20019;-77
2022/06/14 19:07:22;;;;;;;5.95;2.20;;;38.50;26.50;;;;;;7367221;19;20085;-77
2022/06/14 19:10:24;;;;;;;4.43;2.35;;;38.00;26.60;;;;;;7371027;19;20026;-80
2022/06/14 19:13:13;;;;;;;5.05;1.90;;;37.50;27.60;;;;;;7378846;19;20022;-77
2022/06/14 19:15:55;;;;;;;6.03;2.25;;;36.60;27.80;;;;;;7374610;19;20458;-78
2022/06/14 19:18:36;;;;;;;6.88;2.45;;;35.70;28.20;;;;;;7406675;19;20017;-78
2022/06/14 19:21:26;;;;;;;8.50;2.05;;;34.70;29.30;;;;;;7396852;19;20010;-77
2022/06/14 19:24:10;;;;;;;4.47;2.35;;;33.70;30.30;;;;;;7389875;19;20022;-79
2022/06/14 19:26:47;;;;;;;9.20;2.35;;;32.90;31.70;;;;;;7385707;19;20022;-78
2022/06/14 19:29:41;;;;;;;4.38;2.17;;;32.20;32.40;;;;;;7383193;19;20072;-82
2022/06/14 19:32:15;;;;;;;5.75;2.60;;;31.60;33.50;;;;;;7375844;19;20527;-85
2022/06/14 19:34:49;;;;;;;7.05;2.15;;;31.10;34.00;;;;;;7382133;19;20069;-84
2022/06/14 19:37:25;;;;;;;5.72;2.40;;;30.70;35.20;;;;;;7382022;19;20031;-84
2022/06/14 19:39:59;;;;;;;7.28;2.60;;;30.40;34.90;;;;;;7383141;19;20035;-81
2022/06/14 19:42:32;;;;;;;5.78;2.20;;;30.10;35.10;;;;;;7401198;19;20082;-84
2022/06/14 19:45:09;;;;;;;9.25;3.13;;;29.80;35.50;;;;;;7374422;19;20085;-84
2022/06/14 19:47:46;;;;;;;4.90;2.30;;;29.50;35.80;;;;;;7372452;19;20521;-85
2022/06/14 19:50:20;;;;;;;6.22;2.30;;;29.20;36.50;;;;;;7378121;19;20018;-84
2022/06/14 19:52:55;;;;;;;7.88;2.40;;;29.00;36.60;;;;;;7378973;19;20014;-78
2022/06/14 19:55:33;;;;;;;6.68;2.58;;;28.80;36.90;;;;;;7375124;19;20014;-79
2022/06/14 19:58:18;;;;;;;4.35;2.05;;;28.60;37.30;;;;;;7371102;19;20018;-79
2022/06/14 20:00:51;;;;;;;4.90;2.30;;;28.40;38.10;;;;;;7369045;19;20029;-79
2022/06/14 20:03:37;;;;;;;3.35;2.05;;;28.30;37.70;;;;;;7391546;19;20502;-79
2022/06/14 20:06:24;;;;;;;5.32;2.17;;;28.20;38.20;;;;;;7371849;19;20014;-79
2022/06/14 20:08:57;;;;;;;5.05;2.20;;;28.10;38.30;;;;;;7375944;19;20433;-78
2022/06/14 20:11:28;;;;;;;5.60;2.22;;;28.10;38.30;;;;;;7376445;19;20014;-87
2022/06/14 20:13:58;;;;;;;127.78;98.47;;;28.00;38.60;;;;;;7385712;19;20497;-85
2022/06/14 20:16:30;;;;;;;20.88;14.00;;;28.00;38.80;;;;;;7378894;19;20189;-82
2022/06/14 20:19:10;;;;;;;13.77;3.40;;;27.90;38.70;;;;;;7338145;19;20011;-83
2022/06/14 20:21:42;;;;;;;5.07;3.03;;;27.90;39.00;;;;;;7373938;19;20086;-82
2022/06/14 20:24:16;;;;;;;11.18;5.50;;;27.80;39.20;;;;;;7396803;19;20039;-82
2022/06/14 20:26:47;;;;;;;6.05;2.53;;;27.70;39.50;;;;;;7371804;19;20018;-81
2022/06/14 20:29:20;;;;;;;;;;;27.60;39.30;;;;;;7372578;19;20093;-81
2022/06/14 20:31:54;;;;;;;7.43;2.75;;;27.60;39.30;;;;;;7372782;19;19988;-81
2022/06/14 20:34:23;;;;;;;5.75;2.70;;;27.50;39.30;;;;;;7374846;19;20041;-81
2022/06/14 20:37:02;;;;;;;10.00;2.53;;;27.40;40.40;;;;;;7372564;19;20014;-80
2022/06/14 20:39:34;;;;;;;4.95;2.58;;;27.40;39.90;;;;;;7392185;19;20029;-79
2022/06/14 20:42:16;;;;;;;3.67;2.42;;;27.40;40.20;;;;;;7392456;19;20094;-80
2022/06/14 20:44:48;;;;;;;5.28;2.53;;;27.30;40.20;;;;;;7370972;19;20330;-82
2022/06/14 20:47:21;;;;;;;8.30;2.70;;;27.30;40.30;;;;;;7373891;19;20039;-81
2022/06/14 20:49:50;;;;;;;4.90;2.60;;;27.20;40.20;;;;;;7374338;19;20018;-81
2022/06/14 20:52:19;;;;;;;4.75;2.60;;;27.20;40.30;;;;;;7374575;19;20027;-82
2022/06/14 20:54:55;;;;;;;4.55;2.80;;;27.10;41.10;;;;;;7373642;19;20040;-82
2022/06/14 20:57:26;;;;;;;6.80;2.55;;;27.10;40.90;;;;;;7395323;19;20090;-83
2022/06/14 20:59:57;;;;;;;5.43;2.85;;;27.00;41.10;;;;;;7374447;19;20014;-82
2022/06/14 21:02:27;;;;;;;6.10;2.50;;;27.00;41.10;;;;;;7372781;19;20031;-82
2022/06/14 21:05:00;;;;;;;6.82;2.72;;;27.00;41.00;;;;;;7374074;19;20015;-81
2022/06/14 21:07:30;;;;;;;5.50;2.70;;;27.00;41.10;;;;;;7374103;19;20015;-81
2022/06/14 21:10:04;;;;;;;7.20;2.60;;;26.90;41.30;;;;;;7377712;19;20034;-81
2022/06/14 21:12:40;;;;;;;16.85;9.13;;;26.90;41.20;;;;;;7373202;19;20014;-82
2022/06/14 21:15:18;;;;;;;9.98;4.60;;;26.80;41.30;;;;;;7396211;19;20448;-81
2022/06/14 21:17:48;;;;;;;10.25;6.50;;;26.70;41.50;;;;;;7372935;19;20076;-81
2022/06/14 21:20:20;;;;;;;6.57;3.30;;;26.70;41.80;;;;;;7374821;19;20018;-83
2022/06/14 21:22:53;;;;;;;6.43;4.00;;;26.60;41.80;;;;;;7372308;19;20014;-84
2022/06/14 21:25:27;;;;;;;13.63;5.82;;;26.60;42.50;;;;;;7372332;19;20022;-77
2022/06/14 21:27:58;;;;;;;6.78;4.35;;;26.50;42.00;;;;;;7372830;19;20021;-78
2022/06/14 21:30:33;;;;;;;5.97;2.60;;;26.50;42.30;;;;;;7392196;19;20010;-77
2022/06/14 21:33:10;;;;;;;10.05;2.83;;;26.50;42.50;;;;;;7368758;19;20019;-79
2022/06/14 21:35:58;;;;;;;5.20;2.45;;;26.40;42.50;;;;;;7370044;19;20018;-79
2022/06/14 21:38:52;;;;;;;5.63;3.00;;;26.30;42.20;;;;;;7370708;19;20030;-79
2022/06/14 21:41:24;;;;;;;6.55;3.10;;;26.30;43.40;;;;;;7368543;19;20062;-79
2022/06/14 21:43:56;;;;;;;8.55;3.33;;;26.20;43.20;;;;;;7369018;19;20077;-79
2022/06/14 21:46:25;;;;;;;7.25;3.65;;;26.20;43.30;;;;;;7368879;19;20027;-79
2022/06/14 21:48:55;;;;;;;8.80;3.95;;;26.20;43.60;;;;;;7369699;19;20025;-79
2022/06/14 21:51:24;;;;;;;5.75;3.28;;;26.20;44.00;;;;;;7392598;19;20026;-79
2022/06/14 21:54:00;;;;;;;10.75;3.97;;;26.20;44.20;;;;;;7370511;19;20014;-79
2022/06/14 21:56:33;;;;;;;7.18;2.90;;;26.10;44.10;;;;;;7366917;19;20094;-79
2022/06/14 21:59:08;;;;;;;8.40;2.92;;;26.10;44.20;;;;;;7370069;19;20082;-79
2022/06/14 22:01:55;;;;;;;5.68;3.00;;;26.00;44.10;;;;;;7369774;19;20006;-79
2022/06/14 22:04:26;;;;;;;9.77;3.33;;;25.90;43.80;;;;;;7372106;19;20453;-79
2022/06/14 22:06:56;;;;;;;6.65;3.10;;;25.90;44.00;;;;;;7371304;19;20010;-79
2022/06/14 22:09:25;;;;;;;8.27;3.22;;;25.90;44.20;;;;;;7391610;19;20022;-79
2022/06/14 22:11:56;;;;;;;6.32;2.97;;;25.80;44.20;;;;;;7370373;19;20014;-80
2022/06/14 22:14:31;;;;;;;5.80;2.90;;;25.80;44.60;;;;;;7368887;19;20014;-79
2022/06/14 22:17:00;;;;;;;6.85;3.55;;;25.80;44.50;;;;;;7366755;19;20010;-79
2022/06/14 22:19:29;;;;;;;8.70;3.90;;;25.80;44.80;;;;;;7368228;19;20017;-79
2022/06/14 22:21:58;;;;;;;7.70;3.30;;;25.70;45.40;;;;;;7366919;19;20081;-79
2022/06/14 22:24:42;;;;;;;6.70;3.05;;;25.70;44.70;;;;;;7389416;19;20085;-79
2022/06/14 22:27:17;;;;;;;7.97;3.00;;;25.70;44.30;;;;;;7363462;19;20022;-79
2022/06/14 22:29:51;;;;;;;11.35;3.70;;;25.60;44.30;;;;;;7366732;19;20098;-79
2022/06/14 22:32:20;;;;;;;8.15;3.47;;;25.60;44.00;;;;;;7363466;19;20131;-79
2022/06/14 22:34:52;;;;;;;9.32;3.30;;;25.60;44.30;;;;;;7365037;19;20022;-79
2022/06/14 22:37:20;;;;;;;4.47;2.85;;;25.60;44.20;;;;;;7364773;19;20018;-79
2022/06/14 22:39:52;;;;;;;7.95;2.92;;;25.60;44.40;;;;;;7362359;19;20090;-79
2022/06/14 22:42:25;;;;;;;8.35;3.10;;;25.60;44.40;;;;;;7388580;19;20346;-79
2022/06/14 22:44:57;;;;;;;7.35;2.65;;;25.60;44.30;;;;;;7366536;19;20019;-79
2022/06/14 22:47:25;;;;;;;10.45;3.28;;;25.50;44.30;;;;;;7365984;19;20019;-79
2022/06/14 22:49:55;;;;;;;6.78;2.90;;;25.50;44.30;;;;;;7366785;19;20028;-79
2022/06/14 22:52:23;;;;;;;6.75;3.15;;;25.30;44.30;;;;;;7365633;19;20022;-78
2022/06/14 22:54:55;;;;;;;10.80;3.20;;;25.30;44.80;;;;;;7364144;19;20007;-78
2022/06/14 22:57:25;;;;;;;;;;;25.30;45.00;;;;;;7387335;19;20083;-78
2022/06/14 22:59:54;;;;;;;4.20;2.85;;;25.40;45.00;;;;;;7368371;19;20696;-77
2022/06/14 23:02:23;;;;;;;5.22;3.00;;;25.40;45.20;;;;;;7366896;19;20049;-77
2022/06/14 23:04:51;;;;;;;7.18;2.88;;;25.40;44.70;;;;;;7369485;19;20084;-77
2022/06/14 23:07:20;;;;;;;5.72;3.17;;;25.40;44.70;;;;;;7374801;19;20022;-77
2022/06/14 23:09:49;;;;;;;7.30;3.90;;;25.40;45.30;;;;;;7381112;19;20643;-77
2022/06/14 23:12:20;;;;;;;5.85;3.60;;;25.40;45.30;;;;;;7403252;19;20593;-76
2022/06/14 23:14:49;;;;;;;7.82;3.05;;;25.40;45.40;;;;;;7384478;19;20323;-77
2022/06/14 23:17:18;;;;;;;9.75;3.30;;;25.30;45.40;;;;;;7393455;19;20031;-78
2022/06/14 23:19:46;;;;;;;6.05;2.92;;;25.20;45.30;;;;;;7391867;19;20014;-77
2022/06/14 23:22:15;;;;;;;4.50;2.88;;;25.20;45.00;;;;;;7378912;19;20006;-77
2022/06/14 23:24:44;;;;;;;7.20;3.20;;;25.20;45.60;;;;;;7374716;19;20026;-78
2022/06/14 23:27:13;;;;;;;5.63;2.90;;;25.20;45.70;;;;;;7395347;19;20618;-77
2022/06/14 23:29:44;;;;;;;5.40;3.00;;;25.20;45.30;;;;;;7372015;19;20039;-77
2022/06/14 23:32:13;;;;;;;6.22;2.97;;;25.20;45.40;;;;;;7373101;19;20018;-77
2022/06/14 23:34:42;;;;;;;12.88;3.17;;;25.20;45.90;;;;;;7371820;19;20636;-76
2022/06/14 23:37:11;;;;;;;6.13;2.90;;;25.20;45.70;;;;;;7373059;19;20090;-76
2022/06/14 23:39:40;;;;;;;9.27;3.63;;;25.10;45.50;;;;;;7371738;19;20110;-76
2022/06/14 23:42:09;;;;;;;7.57;3.20;;;25.10;45.40;;;;;;7391112;19;20018;-77
2022/06/14 23:44:38;;;;;;;5.18;2.80;;;25.00;45.30;;;;;;7370303;19;20018;-77
2022/06/14 23:47:09;;;;;;;6.70;3.25;;;25.10;45.50;;;;;;7372601;19;20159;-76
2022/06/14 23:49:38;;;;;;;8.30;3.17;;;25.10;45.80;;;;;;7369807;19;20408;-77